Time;durP1;ratioP1;P1;durP2;ratioP2;P2;SDS_P1;SDS_P2;PMS_P1;PMS_P2;Temp;Humidity;BMP_temperature;BMP_pressure;BME280_temperature;BME280_humidity;BME280_pressure;Samples;Min_cycle;Max_cycle;Signal;HPM_P1;HPM_P2
2023/05/31 00:00:06;;;;;;;6.23;4.93;;;15.80;99.90;;;;;;5072520;28;20230;-74
2023/05/31 00:02:31;;;;;;;5.77;4.80;;;15.80;99.90;;;;;;5072125;28;20210;-76
2023/05/31 00:04:57;;;;;;;5.20;4.70;;;15.80;99.90;;;;;;5072159;28;20160;-75
2023/05/31 00:07:23;;;;;;;5.53;4.63;;;15.90;99.90;;;;;;5072200;28;20140;-75
2023/05/31 00:09:48;;;;;;;6.10;5.00;;;15.90;99.90;;;;;;5070528;28;20223;-75
2023/05/31 00:12:14;;;;;;;7.00;5.40;;;15.90;99.90;;;;;;5070971;28;20278;-76
2023/05/31 00:14:39;;;;;;;6.10;5.00;;;16.00;99.90;;;;;;5072130;28;20152;-75
2023/05/31 00:17:05;;;;;;;6.47;5.43;;;16.10;99.90;;;;;;5072194;28;20175;-75
2023/05/31 00:19:31;;;;;;;5.90;5.37;;;15.90;99.90;;;;;;5072180;28;20173;-75
2023/05/31 00:21:57;;;;;;;6.90;4.70;;;15.90;99.90;;;;;;5070839;28;20202;-76
2023/05/31 00:24:23;;;;;;;7.37;4.87;;;15.90;99.90;;;;;;5070541;28;20613;-75
2023/05/31 00:26:48;;;;;;;7.80;5.13;;;15.90;99.90;;;;;;5072021;28;20183;-76
2023/05/31 00:29:14;;;;;;;6.17;4.73;;;16.00;99.90;;;;;;5071890;28;20225;-76
2023/05/31 00:31:43;;;;;;;7.20;5.13;;;15.80;99.90;;;;;;5071112;28;20170;-75
2023/05/31 00:34:10;;;;;;;8.43;5.20;;;15.60;99.90;;;;;;5071807;28;20178;-75
2023/05/31 00:36:36;;;;;;;7.53;5.00;;;15.50;99.90;;;;;;5071924;28;20633;-76
2023/05/31 00:39:03;;;;;;;9.10;5.80;;;15.60;99.90;;;;;;5070218;28;20171;-76
2023/05/31 00:41:29;;;;;;;7.53;5.10;;;15.60;99.90;;;;;;5071921;28;20203;-75
2023/05/31 00:43:55;;;;;;;7.00;4.63;;;15.50;99.90;;;;;;5071823;28;20163;-78
2023/05/31 00:46:30;;;;;;;5.80;5.20;;;15.50;99.90;;;;;;5071912;28;20574;-79
2023/05/31 00:48:56;;;;;;;7.60;5.13;;;15.60;99.90;;;;;;5070444;28;20232;-78
2023/05/31 00:51:22;;;;;;;7.10;5.87;;;15.50;99.90;;;;;;5070829;28;20213;-78
2023/05/31 00:53:48;;;;;;;7.93;5.47;;;15.60;99.90;;;;;;5070401;28;20164;-79
2023/05/31 00:56:15;;;;;;;7.23;4.73;;;15.60;99.90;;;;;;5071936;28;20155;-78
2023/05/31 00:58:41;;;;;;;6.17;4.87;;;15.60;99.90;;;;;;5071960;28;20625;-79
2023/05/31 01:01:08;;;;;;;9.97;5.83;;;15.50;99.90;;;;;;5070145;28;20163;-79
2023/05/31 01:03:34;;;;;;;9.77;5.70;;;15.40;99.90;;;;;;5071810;28;20556;-79
2023/05/31 01:06:00;;;;;;;5.43;4.93;;;15.40;99.90;;;;;;5072092;28;20234;-79
2023/05/31 01:08:26;;;;;;;5.17;4.67;;;15.30;99.90;;;;;;5075267;28;20538;-78
2023/05/31 01:10:59;;;;;;;9.40;5.87;;;15.30;99.90;;;;;;5074008;28;20167;-79
2023/05/31 01:13:38;;;;;;;6.93;5.60;;;15.30;99.90;;;;;;5075491;28;20225;-79
2023/05/31 01:16:04;;;;;;;5.67;5.07;;;15.30;99.90;;;;;;5075264;28;20175;-79
2023/05/31 01:18:45;;;;;;;8.33;5.27;;;15.40;99.90;;;;;;5075403;28;20234;-79
2023/05/31 01:21:16;;;;;;;6.07;5.03;;;15.50;99.90;;;;;;5075142;28;20165;-79
2023/05/31 01:24:01;;;;;;;7.07;5.50;;;15.40;99.90;;;;;;5075132;28;20238;-79
2023/05/31 01:26:46;;;;;;;11.07;5.80;;;15.40;99.90;;;;;;5075157;28;20159;-79
2023/05/31 01:29:17;;;;;;;8.00;6.00;;;15.20;99.90;;;;;;5073659;28;20179;-78
2023/05/31 01:31:45;;;;;;;8.40;5.60;;;15.10;99.90;;;;;;5074925;28;20164;-79
2023/05/31 01:34:12;;;;;;;5.87;5.27;;;15.10;99.90;;;;;;5073761;28;20603;-78
2023/05/31 01:36:38;;;;;;;5.63;5.07;;;15.10;99.90;;;;;;5074827;28;20172;-79
2023/05/31 01:39:04;;;;;;;7.17;5.97;;;15.10;99.90;;;;;;5074992;28;20152;-78
2023/05/31 01:41:35;;;;;;;6.77;5.63;;;15.10;99.90;;;;;;5074610;28;20504;-79
2023/05/31 01:44:01;;;;;;;6.60;5.73;;;15.00;99.90;;;;;;5073435;28;20163;-78
2023/05/31 01:46:27;;;;;;;8.07;5.37;;;14.80;99.90;;;;;;5073484;28;20183;-78
2023/05/31 01:48:53;;;;;;;6.67;5.87;;;14.80;99.90;;;;;;5074837;28;20163;-78
2023/05/31 01:51:20;;;;;;;6.43;5.83;;;14.70;99.90;;;;;;5074553;28;20167;-79
2023/05/31 01:53:46;;;;;;;7.97;5.40;;;14.60;99.90;;;;;;5074604;28;20170;-78
2023/05/31 01:56:12;;;;;;;7.40;6.27;;;14.60;99.90;;;;;;5074487;28;20163;-79
2023/05/31 01:58:44;;;;;;;9.27;5.77;;;14.60;99.90;;;;;;5074694;28;20155;-79
2023/05/31 02:01:11;;;;;;;9.87;6.20;;;14.60;99.90;;;;;;5073157;28;20212;-79
2023/05/31 02:03:41;;;;;;;8.70;6.13;;;14.40;99.90;;;;;;5074566;28;20205;-80
2023/05/31 02:06:06;;;;;;;6.70;6.00;;;14.50;99.90;;;;;;5073009;28;20660;-78
2023/05/31 02:08:32;;;;;;;7.97;6.27;;;14.40;99.90;;;;;;5073312;28;20199;-79
2023/05/31 02:10:59;;;;;;;6.67;6.00;;;14.50;99.90;;;;;;5074472;28;20158;-79
2023/05/31 02:13:27;;;;;;;7.77;6.80;;;14.50;99.90;;;;;;5074525;28;20162;-78
2023/05/31 02:15:54;;;;;;;7.03;5.97;;;14.40;99.90;;;;;;5073145;28;20179;-79
2023/05/31 02:18:21;;;;;;;7.63;6.83;;;14.30;99.90;;;;;;5073506;28;20163;-75
2023/05/31 02:20:48;;;;;;;8.83;6.43;;;14.20;99.90;;;;;;5074076;28;20641;-74
2023/05/31 02:23:14;;;;;;;7.73;6.40;;;14.20;99.90;;;;;;5073723;28;20218;-74
2023/05/31 02:25:40;;;;;;;8.47;6.73;;;14.10;99.90;;;;;;5074173;28;20146;-74
2023/05/31 02:28:05;;;;;;;7.53;6.63;;;14.10;99.90;;;;;;5073737;28;20229;-74
2023/05/31 02:30:32;;;;;;;9.20;6.67;;;14.10;99.90;;;;;;5073740;28;20647;-74
2023/05/31 02:33:02;;;;;;;9.97;7.57;;;14.20;99.90;;;;;;5073678;28;20592;-74
2023/05/31 02:35:28;;;;;;;8.60;6.80;;;14.20;99.90;;;;;;5072147;28;20170;-75
2023/05/31 02:37:53;;;;;;;7.70;6.87;;;14.20;99.90;;;;;;5073731;28;20647;-75
2023/05/31 02:40:19;;;;;;;8.73;7.20;;;14.20;99.90;;;;;;5073595;28;20174;-74
2023/05/31 02:42:44;;;;;;;8.80;7.23;;;14.00;99.90;;;;;;5073311;28;20612;-74
2023/05/31 02:45:11;;;;;;;8.13;6.80;;;14.00;99.90;;;;;;5072008;28;20215;-73
2023/05/31 02:47:38;;;;;;;9.70;7.63;;;14.00;99.90;;;;;;5073254;28;20617;-74
2023/05/31 02:50:07;;;;;;;8.47;6.73;;;14.00;99.90;;;;;;5071780;28;20585;-75
2023/05/31 02:52:34;;;;;;;8.07;6.67;;;14.00;99.90;;;;;;5071909;28;20163;-75
2023/05/31 02:54:59;;;;;;;9.63;7.17;;;14.00;99.90;;;;;;5073386;28;20175;-74
2023/05/31 02:57:25;;;;;;;10.97;7.63;;;13.90;99.90;;;;;;5072955;28;20167;-74
2023/05/31 02:59:55;;;;;;;9.57;7.50;;;14.00;99.90;;;;;;5073134;28;20167;-75
2023/05/31 03:02:21;;;;;;;8.37;7.33;;;14.00;99.90;;;;;;5071446;28;20289;-74
2023/05/31 03:04:48;;;;;;;9.27;7.93;;;13.90;99.90;;;;;;5071713;28;20613;-75
2023/05/31 03:07:14;;;;;;;10.40;7.60;;;13.90;99.90;;;;;;5073013;28;20183;-74
2023/05/31 03:09:41;;;;;;;11.50;7.83;;;14.10;99.90;;;;;;5072928;28;20151;-73
2023/05/31 03:12:06;;;;;;;10.70;8.60;;;14.00;99.90;;;;;;5072903;28;20152;-75
2023/05/31 03:14:32;;;;;;;11.57;7.60;;;13.90;99.90;;;;;;5073049;28;20205;-75
2023/05/31 03:16:58;;;;;;;9.53;7.80;;;13.80;99.90;;;;;;5072840;28;20160;-76
2023/05/31 03:19:24;;;;;;;8.37;7.40;;;13.70;99.90;;;;;;5072647;28;20620;-75
2023/05/31 03:21:49;;;;;;;8.33;7.23;;;13.60;99.90;;;;;;5072714;28;20663;-76
2023/05/31 03:24:15;;;;;;;10.50;7.37;;;13.80;99.90;;;;;;5072666;28;20147;-76
2023/05/31 03:26:41;;;;;;;9.57;7.87;;;13.70;99.90;;;;;;5072796;28;20210;-75
2023/05/31 03:29:06;;;;;;;9.27;8.30;;;13.70;99.90;;;;;;5071127;28;20541;-74
2023/05/31 03:31:32;;;;;;;10.57;8.27;;;13.70;99.90;;;;;;5071223;28;20167;-74
2023/05/31 03:33:58;;;;;;;9.57;8.33;;;13.70;99.90;;;;;;5072297;28;20166;-74
2023/05/31 03:36:24;;;;;;;11.43;8.10;;;13.70;99.90;;;;;;5072851;28;20148;-74
2023/05/31 03:38:50;;;;;;;9.27;8.03;;;13.80;99.90;;;;;;5072701;28;20524;-74
2023/05/31 03:41:16;;;;;;;9.43;8.03;;;13.80;99.90;;;;;;5070947;28;20252;-75
2023/05/31 03:43:42;;;;;;;8.60;7.80;;;13.70;99.90;;;;;;5070872;28;20602;-75
2023/05/31 03:46:07;;;;;;;8.97;7.73;;;13.60;99.90;;;;;;5071162;28;20178;-74
2023/05/31 03:48:33;;;;;;;10.37;8.50;;;13.60;99.90;;;;;;5072194;28;20174;-73
2023/05/31 03:50:59;;;;;;;9.80;8.17;;;13.60;99.90;;;;;;5071089;28;20214;-75
2023/05/31 03:53:25;;;;;;;10.23;7.97;;;13.60;99.90;;;;;;5072274;28;20167;-75
2023/05/31 03:55:51;;;;;;;10.40;8.40;;;13.60;99.90;;;;;;5072438;28;20600;-73
2023/05/31 03:58:20;;;;;;;10.53;8.30;;;13.60;99.90;;;;;;5072203;28;20159;-75
2023/05/31 04:00:46;;;;;;;9.63;8.63;;;13.50;99.90;;;;;;5070742;28;20212;-80
2023/05/31 04:03:12;;;;;;;10.33;8.53;;;13.50;99.90;;;;;;5072052;28;20213;-74
2023/05/31 04:05:39;;;;;;;10.60;8.03;;;13.50;99.90;;;;;;5071058;28;20163;-74
2023/05/31 04:08:05;;;;;;;13.20;8.00;;;13.60;99.90;;;;;;5072124;28;20160;-75
2023/05/31 04:10:31;;;;;;;14.63;9.23;;;13.70;99.90;;;;;;5072383;28;20216;-75
2023/05/31 04:12:56;;;;;;;12.47;8.03;;;13.90;99.90;;;;;;5072354;28;20174;-75
2023/05/31 04:15:23;;;;;;;11.10;9.07;;;13.90;99.90;;;;;;5071697;28;20183;-73
2023/05/31 04:17:51;;;;;;;14.27;8.63;;;13.80;99.90;;;;;;5072147;28;20589;-74
2023/05/31 04:20:18;;;;;;;10.83;8.83;;;14.00;99.90;;;;;;5071982;28;20167;-73
2023/05/31 04:22:44;;;;;;;9.97;8.57;;;13.80;99.90;;;;;;5070690;28;20571;-75
2023/05/31 04:25:12;;;;;;;11.57;8.90;;;13.70;99.90;;;;;;5071944;28;20175;-75
2023/05/31 04:27:40;;;;;;;10.03;8.97;;;13.70;99.90;;;;;;5072080;28;20164;-75
2023/05/31 04:30:07;;;;;;;9.83;8.83;;;13.70;99.90;;;;;;5070049;28;20586;-74
2023/05/31 04:32:34;;;;;;;11.93;8.93;;;13.70;99.90;;;;;;5071848;28;20246;-75
2023/05/31 04:35:03;;;;;;;11.33;9.10;;;13.60;99.90;;;;;;5070515;28;20265;-73
2023/05/31 04:37:30;;;;;;;10.30;9.03;;;13.60;99.90;;;;;;5070479;28;20250;-75
2023/05/31 04:39:57;;;;;;;9.57;8.20;;;13.70;99.90;;;;;;5070457;28;20202;-74
2023/05/31 04:42:25;;;;;;;11.83;9.37;;;13.60;99.90;;;;;;5072775;28;20231;-74
2023/05/31 04:44:57;;;;;;;12.07;9.77;;;13.60;99.90;;;;;;5075349;28;20198;-74
2023/05/31 04:47:24;;;;;;;12.33;9.60;;;13.70;99.90;;;;;;5075745;28;20178;-74
2023/05/31 04:49:50;;;;;;;12.30;9.47;;;13.70;99.90;;;;;;5075619;28;20250;-74
2023/05/31 04:52:16;;;;;;;10.70;9.07;;;13.70;99.90;;;;;;5075573;28;20195;-74
2023/05/31 04:54:42;;;;;;;10.17;8.50;;;13.80;99.90;;;;;;5075480;28;20171;-74
2023/05/31 04:57:07;;;;;;;13.13;8.97;;;13.70;99.90;;;;;;5073911;28;20254;-74
2023/05/31 04:59:34;;;;;;;12.77;9.70;;;13.70;99.90;;;;;;5075122;28;20189;-74
2023/05/31 05:02:02;;;;;;;12.40;10.20;;;13.70;99.90;;;;;;5074023;28;20246;-74
2023/05/31 05:04:28;;;;;;;11.23;10.03;;;13.60;99.90;;;;;;5073726;28;20174;-74
2023/05/31 05:06:54;;;;;;;11.80;9.77;;;13.80;99.90;;;;;;5075353;28;20163;-74
2023/05/31 05:09:20;;;;;;;13.83;10.13;;;13.80;99.90;;;;;;5075161;28;20148;-74
2023/05/31 05:11:46;;;;;;;11.10;9.13;;;13.90;99.90;;;;;;5073615;28;20171;-75
2023/05/31 05:14:15;;;;;;;14.07;10.43;;;13.80;99.90;;;;;;5075106;28;20535;-75
2023/05/31 05:16:41;;;;;;;15.90;11.00;;;13.90;99.90;;;;;;5075714;28;20628;-75
2023/05/31 05:19:06;;;;;;;11.90;9.67;;;14.00;99.90;;;;;;5075641;28;20169;-75
2023/05/31 05:21:33;;;;;;;12.83;10.37;;;14.00;99.90;;;;;;5075318;28;20162;-75
2023/05/31 05:23:58;;;;;;;12.33;10.03;;;14.10;99.90;;;;;;5074119;28;20178;-75
2023/05/31 05:26:25;;;;;;;12.67;10.33;;;14.10;99.90;;;;;;5075462;28;20166;-74
2023/05/31 05:28:51;;;;;;;11.63;10.43;;;14.10;99.90;;;;;;5073893;28;20540;-75
2023/05/31 05:31:17;;;;;;;12.73;10.57;;;14.20;99.90;;;;;;5074022;28;20167;-74
2023/05/31 05:33:43;;;;;;;13.63;10.27;;;14.20;99.90;;;;;;5073933;28;20177;-74
2023/05/31 05:36:09;;;;;;;13.87;9.77;;;14.20;99.90;;;;;;5075379;28;20163;-74
2023/05/31 05:38:35;;;;;;;12.73;10.20;;;14.10;99.90;;;;;;5075135;28;20182;-74
2023/05/31 05:41:00;;;;;;;14.27;10.90;;;14.20;99.90;;;;;;5074888;28;20238;-73
2023/05/31 05:43:30;;;;;;;13.03;10.23;;;14.30;99.90;;;;;;5074542;28;20214;-72
2023/05/31 05:45:55;;;;;;;12.47;10.97;;;14.40;99.90;;;;;;5074859;28;20171;-73
2023/05/31 05:48:21;;;;;;;14.37;10.23;;;14.40;99.90;;;;;;5075108;28;20161;-74
2023/05/31 05:50:47;;;;;;;16.57;11.00;;;14.40;99.90;;;;;;5075168;28;20175;-73
2023/05/31 05:53:13;;;;;;;15.90;11.43;;;14.40;99.90;;;;;;5073626;28;20639;-74
2023/05/31 05:55:48;;;;;;;14.67;10.40;;;14.50;99.90;;;;;;5072972;28;20260;-73
2023/05/31 05:58:16;;;;;;;15.77;10.63;;;14.40;99.90;;;;;;5072833;28;20179;-72
2023/05/31 06:00:44;;;;;;;13.60;11.03;;;14.50;99.90;;;;;;5074613;28;20178;-73
2023/05/31 06:03:10;;;;;;;12.77;10.90;;;14.70;99.90;;;;;;5073249;28;20194;-72
2023/05/31 06:05:36;;;;;;;14.00;10.63;;;14.70;99.90;;;;;;5073499;28;20178;-73
2023/05/31 06:08:02;;;;;;;15.50;12.33;;;14.70;99.90;;;;;;5074373;28;20171;-74
2023/05/31 06:10:28;;;;;;;15.67;11.07;;;14.90;99.90;;;;;;5074583;28;20167;-74
2023/05/31 06:12:54;;;;;;;13.30;10.70;;;15.00;99.90;;;;;;5074137;28;20238;-73
2023/05/31 06:15:20;;;;;;;13.50;11.17;;;15.10;99.90;;;;;;5072737;28;20198;-73
2023/05/31 06:17:48;;;;;;;12.90;10.33;;;15.20;99.90;;;;;;5073035;28;20200;-73
2023/05/31 06:20:15;;;;;;;15.30;11.67;;;15.10;99.90;;;;;;5074505;28;20158;-73
2023/05/31 06:22:42;;;;;;;15.13;11.70;;;14.90;99.90;;;;;;5068579;28;20194;-77
2023/05/31 06:25:08;;;;;;;15.60;11.77;;;15.10;99.90;;;;;;5074230;28;20183;-76
2023/05/31 06:27:34;;;;;;;15.13;10.77;;;15.10;99.90;;;;;;5072236;28;20613;-75
2023/05/31 06:30:00;;;;;;;18.43;11.47;;;15.20;99.90;;;;;;5073386;28;20274;-75
2023/05/31 06:32:27;;;;;;;17.40;10.73;;;15.40;99.90;;;;;;5072274;28;20175;-77
2023/05/31 06:34:54;;;;;;;17.20;10.63;;;15.60;99.90;;;;;;5073132;28;20185;-75
2023/05/31 06:37:21;;;;;;;16.70;10.50;;;15.60;99.90;;;;;;5073854;28;20175;-77
2023/05/31 06:39:47;;;;;;;13.00;10.70;;;15.50;99.90;;;;;;5073761;28;20180;-77
2023/05/31 06:42:14;;;;;;;15.53;11.07;;;15.60;99.90;;;;;;5072961;28;20214;-77
2023/05/31 06:44:41;;;;;;;20.97;11.60;;;15.50;99.90;;;;;;5073631;28;20659;-77
2023/05/31 06:47:07;;;;;;;19.20;11.70;;;15.60;99.90;;;;;;5072532;28;20220;-76
2023/05/31 06:49:33;;;;;;;15.10;10.63;;;15.70;99.90;;;;;;5073748;28;20644;-76
2023/05/31 06:51:58;;;;;;;13.07;11.17;;;15.80;99.90;;;;;;5071812;28;20554;-77
2023/05/31 06:54:24;;;;;;;15.07;10.33;;;15.90;99.90;;;;;;5074151;28;20544;-76
2023/05/31 06:56:50;;;;;;;15.10;10.57;;;16.00;99.90;;;;;;5074493;28;20227;-76
2023/05/31 06:59:15;;;;;;;17.77;11.03;;;16.10;99.90;;;;;;5073387;28;20558;-77
2023/05/31 07:01:41;;;;;;;13.47;11.03;;;16.10;99.90;;;;;;5071961;28;20167;-75
2023/05/31 07:04:07;;;;;;;17.30;10.93;;;16.20;99.90;;;;;;5072940;28;20153;-76
2023/05/31 07:06:35;;;;;;;14.13;10.30;;;16.30;99.90;;;;;;5073246;28;20172;-76
2023/05/31 07:09:01;;;;;;;13.70;10.17;;;16.40;99.90;;;;;;5071923;28;20655;-77
2023/05/31 07:11:26;;;;;;;13.80;9.77;;;16.50;99.90;;;;;;5073102;28;20247;-77
2023/05/31 07:13:52;;;;;;;18.10;10.70;;;16.50;99.90;;;;;;5073421;28;20250;-77
2023/05/31 07:16:17;;;;;;;16.20;10.67;;;16.40;99.90;;;;;;5073302;28;20531;-77
2023/05/31 07:18:43;;;;;;;13.17;10.37;;;16.40;99.90;;;;;;5073001;28;20158;-77
2023/05/31 07:21:08;;;;;;;15.83;9.97;;;16.40;99.90;;;;;;5072974;28;20163;-76
2023/05/31 07:23:35;;;;;;;15.17;10.03;;;16.50;99.90;;;;;;5072854;28;20185;-76
2023/05/31 07:26:02;;;;;;;17.17;10.23;;;16.50;99.90;;;;;;5072796;28;20167;-75
2023/05/31 07:28:27;;;;;;;13.83;10.77;;;16.80;99.90;;;;;;5072730;28;20164;-73
2023/05/31 07:30:53;;;;;;;10.57;8.77;;;17.00;99.90;;;;;;5071152;28;20182;-73
2023/05/31 07:33:20;;;;;;;14.57;9.80;;;17.20;99.90;;;;;;5072600;28;20193;-73
2023/05/31 07:35:46;;;;;;;15.67;9.80;;;17.20;99.90;;;;;;5072663;28;20218;-73
2023/05/31 07:38:12;;;;;;;12.33;10.10;;;17.40;99.90;;;;;;5072591;28;20157;-73
2023/05/31 07:40:37;;;;;;;14.77;9.60;;;17.40;99.90;;;;;;5072273;28;20639;-74
2023/05/31 07:43:03;;;;;;;14.73;9.13;;;17.50;99.90;;;;;;5072601;28;20507;-74
2023/05/31 07:45:28;;;;;;;13.60;9.57;;;17.50;99.90;;;;;;5071304;28;20183;-72
2023/05/31 07:47:57;;;;;;;11.97;9.27;;;17.60;99.90;;;;;;5071159;28;20539;-74
2023/05/31 07:50:23;;;;;;;12.93;9.23;;;17.70;99.90;;;;;;5071162;28;20240;-74
2023/05/31 07:52:49;;;;;;;14.27;9.67;;;18.00;99.90;;;;;;5070871;28;20164;-74
2023/05/31 07:55:17;;;;;;;11.43;8.23;;;18.10;99.90;;;;;;5072456;28;20256;-75
2023/05/31 07:57:43;;;;;;;13.33;9.80;;;18.30;99.90;;;;;;5071096;28;20600;-73
2023/05/31 08:00:11;;;;;;;11.30;8.73;;;18.50;99.90;;;;;;5070952;28;20163;-73
2023/05/31 08:02:39;;;;;;;10.97;8.87;;;18.60;99.90;;;;;;5070913;28;20186;-73
2023/05/31 08:05:05;;;;;;;13.50;8.93;;;18.60;99.90;;;;;;5070844;28;20701;-73
2023/05/31 08:07:31;;;;;;;13.70;8.43;;;18.70;99.90;;;;;;5072290;28;20149;-73
2023/05/31 08:09:56;;;;;;;13.97;9.53;;;18.80;99.90;;;;;;5070960;28;20219;-73
2023/05/31 08:12:22;;;;;;;12.00;8.30;;;18.90;99.90;;;;;;5070875;28;20230;-72
2023/05/31 08:14:47;;;;;;;11.97;8.47;;;19.00;99.90;;;;;;5072121;28;20260;-72
2023/05/31 08:17:13;;;;;;;14.83;8.10;;;19.10;99.90;;;;;;5074561;28;20162;-74
2023/05/31 08:19:39;;;;;;;12.13;8.70;;;19.10;99.90;;;;;;5075055;28;20234;-73
2023/05/31 08:22:05;;;;;;;14.13;8.00;;;19.20;99.90;;;;;;5076405;28;20280;-74
2023/05/31 08:24:30;;;;;;;12.53;8.30;;;19.20;99.90;;;;;;5075230;28;20159;-74
2023/05/31 08:26:58;;;;;;;10.23;8.03;;;19.40;99.90;;;;;;5074970;28;20159;-73
2023/05/31 08:29:24;;;;;;;10.27;7.90;;;19.60;99.90;;;;;;5074738;28;20175;-74
2023/05/31 08:31:49;;;;;;;12.70;8.07;;;19.60;99.90;;;;;;5076609;28;20653;-73
2023/05/31 08:34:15;;;;;;;14.90;7.87;;;19.60;99.90;;;;;;5076184;28;20159;-74
2023/05/31 08:36:41;;;;;;;12.97;7.83;;;19.60;99.90;;;;;;5074995;28;20170;-74
2023/05/31 08:39:09;;;;;;;14.10;8.50;;;19.70;99.90;;;;;;5075934;28;20179;-73
2023/05/31 08:41:52;;;;;;;13.53;8.13;;;19.70;99.90;;;;;;5075891;28;20158;-73
2023/05/31 08:44:20;;;;;;;15.43;7.63;;;20.00;99.90;;;;;;5074553;28;20278;-73
2023/05/31 08:46:47;;;;;;;13.97;8.10;;;20.10;99.90;;;;;;5075764;28;20175;-73
2023/05/31 08:49:15;;;;;;;10.93;7.60;;;20.20;99.90;;;;;;5075702;28;20167;-73
2023/05/31 08:51:45;;;;;;;12.83;7.33;;;20.10;99.90;;;;;;5074364;28;20169;-73
2023/05/31 08:54:11;;;;;;;13.03;8.13;;;20.00;99.90;;;;;;5075616;28;20197;-74
2023/05/31 08:56:38;;;;;;;12.10;7.30;;;20.10;99.90;;;;;;5074451;28;20167;-73
2023/05/31 08:59:11;;;;;;;11.67;7.53;;;20.20;99.90;;;;;;5074271;28;20168;-73
2023/05/31 09:01:44;;;;;;;12.93;7.50;;;20.30;99.90;;;;;;5075524;28;20170;-73
2023/05/31 09:04:10;;;;;;;13.03;7.47;;;20.40;99.90;;;;;;5075489;28;20212;-73
2023/05/31 09:06:36;;;;;;;12.47;7.33;;;20.40;99.90;;;;;;5075330;28;20167;-73
2023/05/31 09:09:02;;;;;;;12.27;6.90;;;20.50;99.90;;;;;;5075455;28;20148;-73
2023/05/31 09:11:28;;;;;;;10.47;7.23;;;20.70;99.90;;;;;;5075573;28;20178;-73
2023/05/31 09:13:55;;;;;;;13.27;6.97;;;20.80;99.90;;;;;;5075438;28;20167;-73
2023/05/31 09:16:23;;;;;;;10.50;7.17;;;20.90;99.90;;;;;;5075353;28;20238;-73
2023/05/31 09:19:01;;;;;;;10.87;6.33;;;21.00;99.90;;;;;;5073932;28;20544;-72
2023/05/31 09:21:27;;;;;;;11.00;7.47;;;21.00;99.90;;;;;;5073850;28;20670;-73
2023/05/31 09:23:59;;;;;;;13.80;7.77;;;20.80;99.90;;;;;;5073501;28;20175;-74
2023/05/31 09:26:26;;;;;;;11.60;7.63;;;20.70;99.90;;;;;;5073744;28;20155;-73
2023/05/31 09:28:53;;;;;;;11.07;5.93;;;20.80;99.90;;;;;;5074655;28;20143;-73
2023/05/31 09:31:20;;;;;;;10.33;5.77;;;20.80;99.90;;;;;;5073470;28;20171;-73
2023/05/31 09:33:48;;;;;;;14.17;6.90;;;20.90;99.90;;;;;;5074865;28;20636;-73
2023/05/31 09:36:22;;;;;;;12.80;6.97;;;21.00;99.90;;;;;;5074667;28;20170;-73
2023/05/31 09:38:49;;;;;;;13.07;6.60;;;21.10;99.90;;;;;;5074891;28;20231;-73
2023/05/31 09:41:16;;;;;;;12.17;5.80;;;21.10;99.90;;;;;;5073548;28;20498;-73
2023/05/31 09:43:43;;;;;;;12.57;6.10;;;21.10;99.90;;;;;;5073325;28;20621;-72
2023/05/31 09:46:26;;;;;;;10.80;5.90;;;21.30;99.90;;;;;;5074679;28;20228;-74
2023/05/31 09:49:03;;;;;;;12.40;6.20;;;21.60;99.90;;;;;;5074438;28;20159;-74
2023/05/31 09:51:32;;;;;;;11.00;6.40;;;21.60;99.90;;;;;;5074657;28;20241;-73
2023/05/31 09:53:59;;;;;;;12.03;7.40;;;21.50;99.90;;;;;;5074506;28;20254;-74
2023/05/31 09:56:27;;;;;;;10.40;6.33;;;21.40;99.90;;;;;;5074411;28;20164;-73
2023/05/31 09:58:56;;;;;;;14.77;6.07;;;21.50;99.90;;;;;;5074558;28;20154;-72
2023/05/31 10:01:22;;;;;;;8.77;5.20;;;21.70;99.90;;;;;;5074402;28;20163;-73
2023/05/31 10:03:51;;;;;;;8.83;5.03;;;21.80;99.90;;;;;;5074054;28;20244;-72
2023/05/31 10:06:17;;;;;;;9.63;6.10;;;21.90;99.70;;;;;;5074430;28;20163;-74
2023/05/31 10:08:45;;;;;;;11.77;6.07;;;21.90;99.90;;;;;;5074419;28;20193;-73
2023/05/31 10:11:15;;;;;;;11.57;5.70;;;22.00;99.30;;;;;;5074102;28;20560;-73
2023/05/31 10:13:43;;;;;;;13.13;5.63;;;22.10;99.10;;;;;;5073934;28;20171;-73
2023/05/31 10:16:10;;;;;;;9.60;5.63;;;22.20;98.40;;;;;;5074187;28;20691;-73
2023/05/31 10:18:40;;;;;;;10.20;5.43;;;22.20;98.30;;;;;;5072521;28;20164;-73
2023/05/31 10:21:13;;;;;;;8.27;4.50;;;22.30;98.20;;;;;;5073831;28;20181;-74
2023/05/31 10:23:55;;;;;;;9.90;5.17;;;22.40;98.20;;;;;;5074188;28;20198;-72
2023/05/31 10:26:22;;;;;;;8.03;4.63;;;22.60;97.60;;;;;;5073750;28;20171;-73
2023/05/31 10:28:58;;;;;;;10.67;3.70;;;22.80;97.20;;;;;;5073765;28;20151;-73
2023/05/31 10:31:33;;;;;;;7.40;4.33;;;23.00;95.60;;;;;;5073770;28;20224;-74
2023/05/31 10:34:10;;;;;;;10.00;4.47;;;23.10;96.30;;;;;;5073493;28;20154;-72
2023/05/31 10:36:36;;;;;;;9.07;4.43;;;23.30;95.10;;;;;;5073630;28;20187;-74
2023/05/31 10:39:09;;;;;;;10.17;4.10;;;23.30;94.70;;;;;;5072890;28;20163;-73
2023/05/31 10:41:44;;;;;;;7.57;4.13;;;23.30;94.80;;;;;;5073588;28;20242;-73
2023/05/31 10:44:17;;;;;;;6.67;3.47;;;23.30;94.50;;;;;;5072433;28;20167;-73
2023/05/31 10:46:48;;;;;;;6.53;3.40;;;23.40;94.20;;;;;;5073603;28;20246;-74
2023/05/31 10:49:17;;;;;;;6.30;3.30;;;23.60;92.60;;;;;;5073368;28;20488;-73
2023/05/31 10:51:46;;;;;;;8.30;3.30;;;23.70;91.60;;;;;;5071916;28;20248;-74
2023/05/31 10:54:20;;;;;;;8.97;3.20;;;23.80;92.00;;;;;;5073295;28;20224;-73
2023/05/31 10:56:56;;;;;;;9.90;3.90;;;23.90;92.70;;;;;;5073343;28;20230;-73
2023/05/31 10:59:27;;;;;;;8.07;3.17;;;23.90;92.20;;;;;;5073224;28;20681;-74
2023/05/31 11:01:54;;;;;;;6.47;3.10;;;24.00;92.30;;;;;;5072595;28;20187;-74
2023/05/31 11:04:24;;;;;;;6.40;3.03;;;24.00;90.90;;;;;;5073235;28;20175;-72
2023/05/31 11:06:55;;;;;;;6.70;2.70;;;24.10;89.40;;;;;;5073133;28;20213;-72
2023/05/31 11:09:21;;;;;;;6.27;2.90;;;24.30;90.10;;;;;;5073008;28;20235;-72
2023/05/31 11:11:49;;;;;;;10.53;3.10;;;24.60;89.00;;;;;;5073012;28;20549;-72
2023/05/31 11:14:28;;;;;;;9.63;3.13;;;24.80;89.00;;;;;;5072705;28;20230;-72
2023/05/31 11:16:53;;;;;;;6.90;3.10;;;25.40;88.40;;;;;;5072603;28;20249;-72
2023/05/31 11:19:40;;;;;;;6.47;3.30;;;25.80;87.40;;;;;;5071423;28;20595;-72
2023/05/31 11:22:16;;;;;;;7.93;2.80;;;26.30;84.40;;;;;;5071382;28;20197;-72
2023/05/31 11:25:00;;;;;;;8.37;3.23;;;26.40;82.90;;;;;;5072552;28;20170;-72
2023/05/31 11:27:36;;;;;;;9.47;3.40;;;26.40;82.40;;;;;;5072553;28;20163;-73
2023/05/31 11:30:06;;;;;;;5.60;2.50;;;26.70;81.00;;;;;;5072457;28;20179;-73
2023/05/31 11:32:34;;;;;;;4.53;2.60;;;26.50;79.70;;;;;;5072344;28;20171;-72
2023/05/31 11:35:13;;;;;;;10.80;3.10;;;26.30;80.10;;;;;;5071211;28;20202;-73
2023/05/31 11:37:40;;;;;;;8.00;3.00;;;26.10;80.40;;;;;;5071253;28;20180;-72
2023/05/31 11:40:14;;;;;;;5.33;3.03;;;25.90;80.60;;;;;;5072458;28;20163;-72
2023/05/31 11:42:44;;;;;;;5.83;3.00;;;26.40;81.70;;;;;;5072435;28;20344;-73
2023/05/31 11:45:17;;;;;;;7.40;2.90;;;27.10;80.70;;;;;;5072438;28;20172;-75
2023/05/31 11:48:20;;;;;;;5.00;2.50;;;27.00;78.00;;;;;;5072506;28;20163;-73
2023/05/31 11:50:46;;;;;;;8.17;3.00;;;27.10;77.80;;;;;;5072571;28;20163;-73
2023/05/31 11:53:13;;;;;;;5.90;2.63;;;27.30;78.20;;;;;;5068595;28;20202;-74
2023/05/31 11:55:44;;;;;;;8.23;3.27;;;27.60;76.60;;;;;;5072877;28;20186;-73
2023/05/31 11:58:10;;;;;;;10.40;2.87;;;28.10;74.80;;;;;;5062991;28;20217;-74
2023/05/31 12:00:42;;;;;;;4.57;2.47;;;28.20;75.70;;;;;;5052075;28;20176;-74
2023/05/31 12:03:13;;;;;;;5.60;2.90;;;28.60;74.60;;;;;;5052033;28;20184;-72
2023/05/31 12:05:39;;;;;;;6.80;3.10;;;28.30;74.40;;;;;;5052356;28;20309;-72
2023/05/31 12:08:09;;;;;;;6.40;2.80;;;28.50;73.10;;;;;;5052371;28;20175;-73
2023/05/31 12:10:35;;;;;;;7.17;2.80;;;29.20;71.30;;;;;;5052135;28;20153;-74
2023/05/31 12:13:03;;;;;;;5.57;2.50;;;29.30;70.10;;;;;;5050645;28;20182;-73
2023/05/31 12:15:31;;;;;;;5.70;2.87;;;28.70;69.80;;;;;;5050642;28;20168;-74
2023/05/31 12:18:01;;;;;;;6.70;2.63;;;28.80;70.70;;;;;;5050942;28;20187;-74
2023/05/31 12:20:30;;;;;;;6.27;3.10;;;29.20;68.90;;;;;;5052266;28;20167;-73
2023/05/31 12:23:14;;;;;;;7.37;2.77;;;29.20;68.80;;;;;;5050950;28;20187;-72
2023/05/31 12:25:49;;;;;;;6.33;2.70;;;30.10;67.80;;;;;;5051825;28;20474;-74
2023/05/31 12:28:19;;;;;;;10.17;2.87;;;30.50;66.10;;;;;;5052190;28;20198;-73
2023/05/31 12:30:47;;;;;;;5.03;2.60;;;30.00;66.00;;;;;;5052018;28;20239;-73
2023/05/31 12:33:13;;;;;;;6.20;2.77;;;29.50;66.60;;;;;;5051125;28;20218;-74
2023/05/31 12:35:43;;;;;;;9.70;2.70;;;29.60;66.00;;;;;;5052626;28;20171;-74
2023/05/31 12:38:08;;;;;;;8.00;3.23;;;29.90;66.00;;;;;;5052005;28;20246;-73
2023/05/31 12:40:40;;;;;;;7.37;2.20;;;30.20;65.20;;;;;;5052103;28;20169;-74
2023/05/31 12:43:06;;;;;;;4.90;2.50;;;30.70;65.60;;;;;;5050412;28;20191;-73